createdAt,value
2023-04-16T00:00:43.861Z,94498.25
2023-04-16T00:03:11.862Z,94488.31
2023-04-16T00:05:38.743Z,94494.16
2023-04-16T00:08:05.485Z,94490.91
2023-04-16T00:10:32.264Z,94490.84
2023-04-16T00:12:58.971Z,94490.06
2023-04-16T00:15:25.845Z,94493.53
2023-04-16T00:17:52.731Z,94492.72
2023-04-16T00:20:19.805Z,94495.41
2023-04-16T00:22:46.738Z,94485.88
2023-04-16T00:25:14.236Z,94495.41
2023-04-16T00:27:40.947Z,94491.47
2023-04-16T00:30:08.195Z,94495.25
2023-04-16T00:32:35.093Z,94500.47
2023-04-16T00:35:01.882Z,94499.16
2023-04-16T00:37:28.562Z,94499.47
2023-04-16T00:39:55.285Z,94494.69
2023-04-16T00:42:22.011Z,94495.66
2023-04-16T00:44:48.749Z,94495.56
2023-04-16T00:47:16.068Z,94508.13
2023-04-16T00:49:42.945Z,94504.94
2023-04-16T00:52:11.528Z,94507.56
2023-04-16T00:54:38.286Z,94505.84
2023-04-16T00:57:05.444Z,94504.59
2023-04-16T00:59:32.523Z,94502.41
2023-04-16T01:01:59.569Z,94507.50
2023-04-16T01:04:26.720Z,94503.50
2023-04-16T01:06:53.900Z,94508.75
2023-04-16T01:09:20.647Z,94498.31
2023-04-16T01:15:40.325Z,94485.88
2023-04-16T01:18:16.904Z,94484.28
2023-04-16T01:20:44.186Z,94483.94
2023-04-16T01:23:10.919Z,94479.53
2023-04-16T01:25:38.608Z,94491.75
2023-04-16T01:28:06.019Z,94505.31
2023-04-16T01:30:32.803Z,94504.00
2023-04-16T01:33:00.368Z,94490.69
2023-04-16T01:35:27.262Z,94487.16
2023-04-16T01:37:54.130Z,94499.22
2023-04-16T01:40:20.943Z,94500.78
2023-04-16T01:46:41.415Z,94498.31
2023-04-16T01:49:08.979Z,94504.78
2023-04-16T01:51:35.819Z,94503.88
2023-04-16T01:54:02.543Z,94511.22
2023-04-16T01:56:29.440Z,94514.31
2023-04-16T01:58:56.134Z,94509.00
2023-04-16T02:01:23.088Z,94504.28
2023-04-16T02:03:50.106Z,94517.06
2023-04-16T02:06:17.049Z,94514.66
2023-04-16T02:08:43.758Z,94527.13
2023-04-16T02:11:10.597Z,94516.78
2023-04-16T02:13:37.654Z,94508.94
2023-04-16T02:16:04.530Z,94520.03
2023-04-16T02:18:31.373Z,94512.88
2023-04-16T02:20:58.682Z,94515.97
2023-04-16T02:23:25.524Z,94517.75
2023-04-16T02:25:52.400Z,94519.78
2023-04-16T02:28:19.147Z,94518.78
2023-04-16T02:30:45.989Z,94516.69
2023-04-16T02:33:12.865Z,94521.03
2023-04-16T02:35:40.196Z,94521.03
2023-04-16T02:38:07.201Z,94527.47
2023-04-16T02:40:34.116Z,94521.56
2023-04-16T02:43:01.236Z,94521.56
2023-04-16T02:45:28.956Z,94520.34
2023-04-16T02:47:55.696Z,94513.66
2023-04-16T02:50:22.492Z,94520.78
2023-04-16T02:52:49.246Z,94516.78
2023-04-16T02:55:16.087Z,94508.16
2023-04-16T02:57:42.961Z,94503.28
2023-04-16T03:00:10.159Z,94505.38
2023-04-16T03:02:36.976Z,94502.81
2023-04-16T03:05:04.291Z,94507.28
2023-04-16T03:07:31.130Z,94511.13
2023-04-16T03:09:57.831Z,94513.38
2023-04-16T03:12:24.505Z,94512.00
2023-04-16T03:14:51.582Z,94506.88
2023-04-16T03:17:18.311Z,94502.56
2023-04-16T03:19:45.101Z,94510.19
2023-04-16T03:22:11.931Z,94504.28
2023-04-16T03:24:38.700Z,94504.34
2023-04-16T03:27:05.450Z,94501.06
2023-04-16T03:29:32.204Z,94512.00
2023-04-16T03:31:59.058Z,94509.78
2023-04-16T03:34:25.892Z,94506.50
2023-04-16T03:36:52.706Z,94504.78
2023-04-16T03:39:19.483Z,94504.34
2023-04-16T03:45:26.834Z,94510.22
2023-04-16T03:47:53.749Z,94509.56
2023-04-16T03:50:20.552Z,94511.88
2023-04-16T03:52:53.750Z,94513.56
2023-04-16T03:55:22.031Z,94509.88
2023-04-16T03:57:49.084Z,94508.34
2023-04-16T04:00:15.862Z,94518.44
2023-04-16T04:02:42.869Z,94503.91
2023-04-16T04:05:10.897Z,94505.47
2023-04-16T04:07:38.061Z,94501.38
2023-04-16T04:10:05.069Z,94506.03
2023-04-16T04:12:32.270Z,94501.81
2023-04-16T04:14:59.067Z,94506.88
2023-04-16T04:21:13.325Z,94508.84
2023-04-16T04:23:40.056Z,94514.31
2023-04-16T04:26:06.837Z,94506.22
2023-04-16T04:28:33.673Z,94517.16
2023-04-16T04:31:00.394Z,94505.81
2023-04-16T04:33:27.352Z,94515.56
2023-04-16T04:35:54.491Z,94516.75
2023-04-16T04:38:21.205Z,94513.16
2023-04-16T04:40:51.464Z,94515.50
2023-04-16T04:43:19.306Z,94510.56
2023-04-16T04:45:46.122Z,94518.75
2023-04-16T04:48:13.531Z,94510.84
2023-04-16T04:50:41.065Z,94516.47
2023-04-16T04:53:07.901Z,94524.47
2023-04-16T04:55:35.017Z,94526.69
2023-04-16T04:58:02.564Z,94529.66
2023-04-16T05:00:29.606Z,94536.34
2023-04-16T05:02:57.519Z,94533.19
2023-04-16T05:05:26.034Z,94533.53
2023-04-16T05:07:52.871Z,94531.81
2023-04-16T05:10:19.745Z,94526.06
2023-04-16T05:12:48.858Z,94527.09
2023-04-16T05:15:16.348Z,94529.84
2023-04-16T05:17:43.152Z,94523.34
2023-04-16T05:20:09.990Z,94530.94
2023-04-16T05:22:36.752Z,94536.44
2023-04-16T05:25:03.573Z,94526.59
2023-04-16T05:27:30.294Z,94534.06
2023-04-16T05:29:57.421Z,94536.47
2023-04-16T05:32:25.863Z,94538.25
2023-04-16T05:34:52.768Z,94535.81
2023-04-16T05:37:19.490Z,94538.47
2023-04-16T05:39:46.181Z,94543.59
2023-04-16T05:42:13.809Z,94532.78
2023-04-16T05:44:40.621Z,94534.19
2023-04-16T05:47:07.364Z,94522.34
2023-04-16T05:49:34.252Z,94530.09
2023-04-16T05:52:00.914Z,94531.34
2023-04-16T05:54:27.996Z,94531.91
2023-04-16T05:56:54.688Z,94534.16
2023-04-16T05:59:21.369Z,94533.50
2023-04-16T06:01:48.151Z,94536.91
2023-04-16T06:04:15.336Z,94538.34
2023-04-16T06:06:42.108Z,94539.50
2023-04-16T06:09:08.973Z,94548.66
2023-04-16T06:12:15.060Z,94544.72
2023-04-16T06:14:41.776Z,94540.66
2023-04-16T06:17:08.876Z,94541.88
2023-04-16T06:19:35.566Z,94546.38
2023-04-16T06:22:02.378Z,94539.59
2023-04-16T06:24:29.088Z,94543.41
2023-04-16T06:27:37.913Z,94546.38
2023-04-16T06:30:06.061Z,94546.59
2023-04-16T06:32:32.793Z,94547.94
2023-04-16T06:35:01.446Z,94538.53
2023-04-16T06:37:28.232Z,94533.50
2023-04-16T06:39:54.965Z,94539.44
2023-04-16T06:42:21.639Z,94543.16
2023-04-16T06:44:51.636Z,94547.44
2023-04-16T06:47:18.485Z,94545.16
2023-04-16T06:49:45.196Z,94542.28
2023-04-16T06:52:14.895Z,94544.63
2023-04-16T06:54:41.613Z,94541.56
2023-04-16T06:57:08.453Z,94546.13
2023-04-16T06:59:35.189Z,94543.16
2023-04-16T07:02:02.129Z,94539.69
2023-04-16T07:04:29.006Z,94534.94
2023-04-16T07:06:56.092Z,94541.25
2023-04-16T07:09:22.826Z,94543.16
2023-04-16T07:11:50.966Z,94549.19
2023-04-16T07:14:17.652Z,94547.81
2023-04-16T07:17:15.549Z,94554.81
2023-04-16T07:19:42.527Z,94566.28
2023-04-16T07:22:10.277Z,94561.53
2023-04-16T07:24:36.989Z,94561.34
2023-04-16T07:27:03.885Z,94556.00
2023-04-16T07:29:30.776Z,94558.75
2023-04-16T07:32:23.848Z,94556.38
2023-04-16T07:34:51.776Z,94555.94
2023-04-16T07:37:18.605Z,94566.59
2023-04-16T07:39:45.370Z,94570.88
2023-04-16T07:42:12.119Z,94570.59
2023-04-16T07:44:39.036Z,94574.44
2023-04-16T07:47:06.075Z,94563.84
2023-04-16T07:49:32.807Z,94565.03
2023-04-16T07:51:59.479Z,94579.13
2023-04-16T07:54:27.806Z,94579.38
2023-04-16T07:56:55.903Z,94575.41
2023-04-16T07:59:24.261Z,94570.91
2023-04-16T08:01:52.620Z,94578.22
2023-04-16T08:04:19.489Z,94584.34
2023-04-16T08:06:46.454Z,94586.81
2023-04-16T08:09:13.140Z,94585.34
2023-04-16T08:11:39.890Z,94586.66
2023-04-16T08:14:06.651Z,94589.78
2023-04-16T08:16:33.397Z,94589.41
2023-04-16T08:19:00.264Z,94589.59
2023-04-16T08:21:28.771Z,94594.03
2023-04-16T08:23:55.986Z,94599.25
2023-04-16T08:26:23.251Z,94595.47
2023-04-16T08:28:50.470Z,94596.19
2023-04-16T08:31:17.278Z,94599.25
2023-04-16T08:33:44.101Z,94606.91
2023-04-16T08:36:10.926Z,94588.28
2023-04-16T08:38:37.676Z,94601.91
2023-04-16T08:41:06.177Z,94602.28
2023-04-16T08:43:37.617Z,94609.38
2023-04-16T08:46:05.364Z,94608.41
2023-04-16T08:48:43.084Z,94612.13
2023-04-16T08:51:10.606Z,94610.06
2023-04-16T08:53:43.574Z,94620.91
2023-04-16T08:56:10.801Z,94621.09
2023-04-16T08:58:38.031Z,94618.00
2023-04-16T09:01:05.146Z,94616.63
2023-04-16T09:03:34.822Z,94628.22
2023-04-16T09:06:03.021Z,94624.25
2023-04-16T09:08:29.839Z,94620.47
2023-04-16T09:10:56.649Z,94629.50
2023-04-16T09:13:23.355Z,94637.00
2023-04-16T09:15:53.816Z,94632.03
2023-04-16T09:18:20.606Z,94634.78
2023-04-16T09:20:48.567Z,94635.16
2023-04-16T09:23:15.255Z,94640.53
2023-04-16T09:25:42.365Z,94638.53
2023-04-16T09:28:12.356Z,94638.56
2023-04-16T09:30:39.051Z,94626.88
2023-04-16T09:33:17.048Z,94634.16
2023-04-16T09:35:48.089Z,94639.97
2023-04-16T09:38:16.013Z,94638.75
2023-04-16T09:40:42.709Z,94637.31
2023-04-16T09:43:16.633Z,94643.50
2023-04-16T09:45:50.680Z,94645.22
2023-04-16T09:48:30.551Z,94643.47
2023-04-16T09:50:58.004Z,94640.41
2023-04-16T09:53:31.315Z,94637.78
2023-04-16T09:55:58.869Z,94646.16
2023-04-16T09:58:25.821Z,94639.34
2023-04-16T10:01:14.557Z,94632.81
2023-04-16T10:03:41.384Z,94638.41
2023-04-16T10:06:15.376Z,94641.09
2023-04-16T10:08:50.272Z,94648.25
2023-04-16T10:11:17.416Z,94653.28
2023-04-16T10:13:44.213Z,94653.19
2023-04-16T10:16:10.969Z,94647.88
2023-04-16T10:18:39.183Z,94653.66
2023-04-16T10:21:06.322Z,94654.50
2023-04-16T10:23:33.914Z,94646.16
2023-04-16T10:26:01.772Z,94652.56
2023-04-16T10:28:28.534Z,94655.22
2023-04-16T10:30:58.540Z,94652.72
2023-04-16T10:33:28.715Z,94653.78
2023-04-16T10:36:12.190Z,94654.75
2023-04-16T10:38:47.465Z,94655.19
2023-04-16T10:41:14.359Z,94658.28
2023-04-16T10:43:46.530Z,94657.16
2023-04-16T10:46:23.756Z,94662.88
2023-04-16T10:48:53.005Z,94658.75
2023-04-16T10:51:33.535Z,94655.66
2023-04-16T10:54:04.865Z,94663.22
2023-04-16T10:56:37.537Z,94665.50
2023-04-16T10:59:09.221Z,94658.97
2023-04-16T11:01:43.728Z,94661.91
2023-04-16T11:04:22.303Z,94662.63
2023-04-16T11:07:04.001Z,94659.69
2023-04-16T11:10:01.620Z,94658.00
2023-04-16T11:12:40.292Z,94654.44
2023-04-16T11:15:07.826Z,94657.69
2023-04-16T11:17:50.720Z,94663.06
2023-04-16T11:20:21.367Z,94660.94
2023-04-16T11:22:52.368Z,94665.63
2023-04-16T11:25:22.890Z,94666.84
2023-04-16T11:27:50.213Z,94657.97
2023-04-16T11:30:17.023Z,94664.34
2023-04-16T11:32:44.263Z,94661.78
2023-04-16T11:35:15.593Z,94661.19
2023-04-16T11:37:42.308Z,94667.84
2023-04-16T11:40:09.597Z,94664.25
2023-04-16T11:42:40.250Z,94652.66
2023-04-16T11:45:11.480Z,94657.97
2023-04-16T11:47:47.762Z,94650.56
2023-04-16T11:50:28.105Z,94659.22
2023-04-16T11:52:56.613Z,94656.91
2023-04-16T11:55:24.545Z,94653.16
2023-04-16T11:57:52.052Z,94654.75
2023-04-16T12:00:24.709Z,94662.75
2023-04-16T12:02:54.262Z,94658.81
2023-04-16T12:05:34.246Z,94654.81
2023-04-16T12:08:02.582Z,94658.25
2023-04-16T12:10:29.709Z,94661.00
2023-04-16T12:13:15.562Z,94661.84
2023-04-16T12:15:44.980Z,94651.59
2023-04-16T12:18:11.700Z,94655.34
2023-04-16T12:20:45.240Z,94657.13
2023-04-16T12:23:30.400Z,94663.59
2023-04-16T12:25:57.752Z,94663.38
2023-04-16T12:28:44.137Z,94661.22
2023-04-16T12:31:12.340Z,94662.97
2023-04-16T12:33:39.051Z,94658.97
2023-04-16T12:39:39.827Z,94660.03
2023-04-16T12:42:06.521Z,94659.22
2023-04-16T12:44:33.235Z,94657.53
2023-04-16T12:47:00.123Z,94662.09
2023-04-16T12:49:26.987Z,94659.06
2023-04-16T12:55:41.755Z,94662.09
2023-04-16T12:58:11.142Z,94655.03
2023-04-16T13:00:39.557Z,94656.09
2023-04-16T13:03:06.771Z,94655.78
2023-04-16T13:05:33.794Z,94657.13
2023-04-16T13:08:00.678Z,94654.63
2023-04-16T13:10:27.372Z,94653.03
2023-04-16T13:12:54.233Z,94651.16
2023-04-16T13:15:20.969Z,94649.75
2023-04-16T13:17:48.817Z,94641.69
2023-04-16T13:20:15.504Z,94646.34
2023-04-16T13:22:42.692Z,94643.19
2023-04-16T13:25:09.846Z,94644.97
2023-04-16T13:27:36.981Z,94649.84
2023-04-16T13:30:03.824Z,94647.66
2023-04-16T13:32:31.670Z,94645.13
2023-04-16T13:34:58.920Z,94643.66
2023-04-16T13:37:30.909Z,94644.50
2023-04-16T13:39:57.738Z,94638.25
2023-04-16T13:42:24.714Z,94642.13
2023-04-16T13:44:51.466Z,94642.66
2023-04-16T13:47:18.174Z,94643.53
2023-04-16T13:49:45.590Z,94639.78
2023-04-16T13:52:12.434Z,94647.19
2023-04-16T13:54:39.494Z,94635.88
2023-04-16T13:57:06.244Z,94635.47
2023-04-16T13:59:33.474Z,94635.13
2023-04-16T14:02:00.241Z,94631.41
2023-04-16T14:04:27.758Z,94646.78
2023-04-16T14:06:54.890Z,94640.53
2023-04-16T14:09:21.563Z,94640.03
2023-04-16T14:11:48.645Z,94643.84
2023-04-16T14:14:15.407Z,94642.59
2023-04-16T14:16:42.354Z,94643.56
2023-04-16T14:19:09.502Z,94645.91
2023-04-16T14:21:36.624Z,94641.63
2023-04-16T14:24:04.221Z,94651.50
2023-04-16T14:26:31.127Z,94644.44
2023-04-16T14:28:58.261Z,94643.53
2023-04-16T14:31:27.064Z,94645.19
2023-04-16T14:33:53.758Z,94649.47
2023-04-16T14:36:20.458Z,94643.63
2023-04-16T14:38:50.207Z,94653.06
2023-04-16T14:41:18.110Z,94649.53
2023-04-16T14:43:44.818Z,94643.81
2023-04-16T14:46:11.577Z,94638.63
2023-04-16T14:48:38.885Z,94641.41
2023-04-16T14:51:05.617Z,94634.09
2023-04-16T14:53:32.718Z,94642.84
2023-04-16T14:55:59.490Z,94642.84
2023-04-16T14:58:26.601Z,94635.59
2023-04-16T15:00:53.662Z,94635.09
2023-04-16T15:03:20.839Z,94628.25
2023-04-16T15:05:47.782Z,94631.53
2023-04-16T15:08:14.824Z,94636.00
2023-04-16T15:10:41.621Z,94637.41
2023-04-16T15:13:09.105Z,94632.25
2023-04-16T15:15:36.184Z,94634.50
2023-04-16T15:18:03.951Z,94639.91
2023-04-16T15:20:30.796Z,94634.81
2023-04-16T15:22:57.875Z,94634.19
2023-04-16T15:25:24.903Z,94633.72
2023-04-16T15:27:52.399Z,94639.81
2023-04-16T15:30:19.302Z,94634.38
2023-04-16T15:32:46.100Z,94638.22
2023-04-16T15:35:13.843Z,94644.13
2023-04-16T15:37:41.573Z,94649.44
2023-04-16T15:40:08.414Z,94648.16
2023-04-16T15:42:35.144Z,94644.09
2023-04-16T15:45:01.987Z,94643.81
2023-04-16T15:47:29.918Z,94634.38
2023-04-16T15:49:57.301Z,94638.09
2023-04-16T15:52:24.338Z,94629.84
2023-04-16T15:54:51.068Z,94630.47
2023-04-16T15:57:17.809Z,94637.31
2023-04-16T15:59:53.065Z,94641.97
2023-04-16T16:02:32.788Z,94641.28
2023-04-16T16:04:59.680Z,94648.22
2023-04-16T16:07:26.609Z,94643.84
2023-04-16T16:09:53.527Z,94643.22
2023-04-16T16:12:20.268Z,94645.25
2023-04-16T16:14:47.012Z,94643.56
2023-04-16T16:17:14.655Z,94652.22
2023-04-16T16:19:41.365Z,94652.25
2023-04-16T16:22:09.165Z,94652.53
2023-04-16T16:24:38.809Z,94653.44
2023-04-16T16:27:06.208Z,94657.50
2023-04-16T16:29:33.045Z,94647.78
2023-04-16T16:32:00.256Z,94653.72
2023-04-16T16:34:27.796Z,94660.91
2023-04-16T16:36:55.725Z,94653.13
2023-04-16T16:39:23.125Z,94652.13
2023-04-16T16:41:50.396Z,94656.66
2023-04-16T16:44:17.658Z,94651.22
2023-04-16T16:46:47.994Z,94655.59
2023-04-16T16:49:15.503Z,94658.25
2023-04-16T16:51:42.412Z,94657.56
2023-04-16T16:54:09.693Z,94659.88
2023-04-16T16:56:38.783Z,94658.94
2023-04-16T16:59:05.527Z,94655.44
2023-04-16T17:01:32.406Z,94660.88
2023-04-16T17:03:59.239Z,94664.47
2023-04-16T17:06:26.616Z,94666.91
2023-04-16T17:08:53.943Z,94668.69
2023-04-16T17:11:20.968Z,94660.63
2023-04-16T17:13:48.111Z,94670.75
2023-04-16T17:16:15.001Z,94670.66
2023-04-16T17:18:42.114Z,94670.34
2023-04-16T17:21:09.221Z,94675.22
2023-04-16T17:23:36.207Z,94671.38
2023-04-16T17:26:02.939Z,94666.78
2023-04-16T17:28:29.939Z,94667.56
2023-04-16T17:30:57.014Z,94661.56
2023-04-16T17:33:23.772Z,94661.03
2023-04-16T17:35:50.532Z,94658.41
2023-04-16T17:38:17.836Z,94665.72
2023-04-16T17:40:44.581Z,94667.06
2023-04-16T17:43:11.428Z,94667.28
2023-04-16T17:45:38.608Z,94669.06
2023-04-16T17:48:10.469Z,94669.25
2023-04-16T17:50:58.071Z,94664.47
2023-04-16T17:53:24.904Z,94668.00
2023-04-16T17:55:54.571Z,94667.03
2023-04-16T17:58:22.987Z,94667.88
2023-04-16T18:00:49.754Z,94667.13
2023-04-16T18:03:16.578Z,94665.56
2023-04-16T18:05:43.522Z,94669.28
2023-04-16T18:08:10.434Z,94673.16
2023-04-16T18:10:38.468Z,94657.31
2023-04-16T18:13:05.204Z,94659.38
2023-04-16T18:15:35.664Z,94669.84
2023-04-16T18:18:02.518Z,94665.41
2023-04-16T18:20:30.296Z,94665.81
2023-04-16T18:22:57.357Z,94672.50
2023-04-16T18:25:33.680Z,94675.41
2023-04-16T18:28:02.172Z,94668.94
2023-04-16T18:30:29.463Z,94658.31
2023-04-16T18:33:19.514Z,94663.78
2023-04-16T18:35:42.902Z,94667.50
2023-04-16T18:38:15.146Z,94660.50
2023-04-16T18:40:41.885Z,94669.88
2023-04-16T18:43:09.069Z,94671.53
2023-04-16T18:45:36.218Z,94688.59
2023-04-16T18:48:03.094Z,94684.63
2023-04-16T18:50:31.142Z,94679.72
2023-04-16T18:52:58.340Z,94683.19
2023-04-16T18:55:25.160Z,94685.28
2023-04-16T18:57:51.980Z,94682.16
2023-04-16T19:00:18.763Z,94687.09
2023-04-16T19:02:45.659Z,94685.75
2023-04-16T19:05:12.529Z,94688.19
2023-04-16T19:07:39.235Z,94686.94
2023-04-16T19:10:07.979Z,94687.75
2023-04-16T19:12:35.333Z,94691.66
2023-04-16T19:15:02.097Z,94694.31
2023-04-16T19:17:29.260Z,94689.97
2023-04-16T19:19:57.023Z,94690.75
2023-04-16T19:22:24.096Z,94695.88
2023-04-16T19:24:53.775Z,94709.81
2023-04-16T19:27:28.905Z,94699.09
2023-04-16T19:29:55.605Z,94698.31
2023-04-16T19:32:22.316Z,94695.63
2023-04-16T19:34:49.057Z,94698.19
2023-04-16T19:37:15.809Z,94697.28
2023-04-16T19:39:43.553Z,94698.19
2023-04-16T19:42:10.300Z,94696.50
2023-04-16T19:44:38.657Z,94694.06
2023-04-16T19:47:06.046Z,94690.94
2023-04-16T19:49:34.584Z,94707.09
2023-04-16T19:52:01.406Z,94701.19
2023-04-16T19:54:28.849Z,94705.81
2023-04-16T19:56:57.804Z,94701.88
2023-04-16T19:59:25.768Z,94705.88
2023-04-16T20:01:53.089Z,94698.47
2023-04-16T20:04:19.892Z,94700.47
2023-04-16T20:06:47.828Z,94707.41
2023-04-16T20:09:14.557Z,94699.38
2023-04-16T20:11:41.302Z,94687.81
2023-04-16T20:14:08.681Z,94684.03
2023-04-16T20:16:35.751Z,94685.50
2023-04-16T20:19:05.181Z,94689.84
2023-04-16T20:21:33.577Z,94680.41
2023-04-16T20:24:00.681Z,94683.19
2023-04-16T20:26:30.050Z,94674.81
2023-04-16T20:28:56.992Z,94687.41
2023-04-16T20:31:24.111Z,94676.81
2023-04-16T20:33:50.827Z,94682.34
2023-04-16T20:36:17.600Z,94686.69
2023-04-16T20:38:44.347Z,94685.81
2023-04-16T20:41:31.516Z,94676.53
2023-04-16T20:43:58.561Z,94678.81
2023-04-16T20:46:25.452Z,94678.34
2023-04-16T20:48:52.203Z,94676.44
2023-04-16T20:51:19.040Z,94671.22
2023-04-16T20:53:45.788Z,94672.34
2023-04-16T20:56:12.603Z,94661.88
2023-04-16T20:58:39.294Z,94656.63
2023-04-16T21:01:06.421Z,94657.09
2023-04-16T21:03:34.668Z,94646.06
2023-04-16T21:06:01.453Z,94647.94
2023-04-16T21:08:28.191Z,94652.09
2023-04-16T21:11:08.022Z,94642.75
2023-04-16T21:13:34.763Z,94644.63
2023-04-16T21:16:01.532Z,94636.75
2023-04-16T21:18:28.221Z,94641.06
2023-04-16T21:20:56.046Z,94643.84
2023-04-16T21:23:22.890Z,94640.72
2023-04-16T21:25:49.815Z,94639.41
2023-04-16T21:28:16.872Z,94631.50
2023-04-16T21:30:43.637Z,94628.38
2023-04-16T21:33:10.664Z,94638.06
2023-04-16T21:35:37.452Z,94642.19
2023-04-16T21:38:04.166Z,94631.97
2023-04-16T21:40:31.019Z,94630.72
2023-04-16T21:42:57.816Z,94629.28
2023-04-16T21:45:24.586Z,94632.06
2023-04-16T21:47:55.562Z,94627.75
2023-04-16T21:50:22.466Z,94630.41
2023-04-16T21:52:49.301Z,94620.81
2023-04-16T21:55:16.047Z,94631.63
2023-04-16T21:57:42.863Z,94636.22
2023-04-16T22:00:10.024Z,94626.28
2023-04-16T22:02:37.301Z,94626.63
2023-04-16T22:05:04.369Z,94627.84
2023-04-16T22:07:31.066Z,94629.06
2023-04-16T22:09:57.751Z,94617.03
2023-04-16T22:12:24.452Z,94621.38
2023-04-16T22:17:22.477Z,94619.81
2023-04-16T22:19:49.204Z,94613.03
2023-04-16T22:22:16.192Z,94605.03
2023-04-16T22:24:42.871Z,94610.34
2023-04-16T22:27:09.737Z,94607.56
2023-04-16T22:29:36.441Z,94603.09
2023-04-16T22:32:03.316Z,94603.09
2023-04-16T22:34:30.354Z,94597.19
2023-04-16T22:36:57.421Z,94584.72
2023-04-16T22:39:24.199Z,94594.41
2023-04-16T22:41:50.894Z,94584.84
2023-04-16T22:44:17.965Z,94565.22
2023-04-16T22:46:44.672Z,94572.34
2023-04-16T22:49:12.116Z,94572.22
2023-04-16T22:51:38.947Z,94562.75
2023-04-16T22:54:06.301Z,94561.53
2023-04-16T22:56:33.533Z,94582.25
2023-04-16T22:59:00.222Z,94567.22
2023-04-16T23:01:27.092Z,94561.66
2023-04-16T23:03:53.926Z,94553.44
2023-04-16T23:06:20.706Z,94557.56
2023-04-16T23:08:47.499Z,94563.72
2023-04-16T23:11:14.694Z,94564.47
2023-04-16T23:13:44.534Z,94542.31
2023-04-16T23:16:11.432Z,94546.22
2023-04-16T23:18:38.242Z,94538.94
2023-04-16T23:21:05.169Z,94539.41
2023-04-16T23:23:31.961Z,94541.84
2023-04-16T23:25:58.711Z,94543.34
2023-04-16T23:28:25.395Z,94536.56
2023-04-16T23:30:52.215Z,94550.72
2023-04-16T23:33:18.954Z,94529.97
2023-04-16T23:35:46.656Z,94536.44
2023-04-16T23:38:13.377Z,94525.66
2023-04-16T23:40:40.107Z,94540.78
2023-04-16T23:43:06.848Z,94539.69
2023-04-16T23:45:33.606Z,94542.13
2023-04-16T23:48:00.423Z,94541.22
2023-04-16T23:50:27.318Z,94531.78
2023-04-16T23:52:54.008Z,94533.34
2023-04-16T23:55:20.773Z,94528.34
2023-04-16T23:57:47.549Z,94538.22
